sensor_id;sensor_type;location;lat;lon;timestamp;temperature;humidity
63202;DHT22;49296;48.188;11.566;2023-08-21T00:01:22;26.92;60.89
63202;DHT22;49296;48.188;11.566;2023-08-21T00:03:50;26.91;60.95
63202;DHT22;49296;48.188;11.566;2023-08-21T00:06:17;26.88;60.89
63202;DHT22;49296;48.188;11.566;2023-08-21T00:08:43;26.89;60.90
63202;DHT22;49296;48.188;11.566;2023-08-21T00:11:10;26.82;60.94
63202;DHT22;49296;48.188;11.566;2023-08-21T00:13:37;26.81;61.09
63202;DHT22;49296;48.188;11.566;2023-08-21T00:16:03;26.75;61.24
63202;DHT22;49296;48.188;11.566;2023-08-21T00:18:30;26.71;61.12
63202;DHT22;49296;48.188;11.566;2023-08-21T00:20:58;26.68;61.31
63202;DHT22;49296;48.188;11.566;2023-08-21T00:23:24;26.69;61.26
63202;DHT22;49296;48.188;11.566;2023-08-21T00:25:51;26.68;61.36
63202;DHT22;49296;48.188;11.566;2023-08-21T00:28:18;26.71;61.30
63202;DHT22;49296;48.188;11.566;2023-08-21T00:30:45;26.71;61.29
63202;DHT22;49296;48.188;11.566;2023-08-21T00:33:11;26.64;61.51
63202;DHT22;49296;48.188;11.566;2023-08-21T00:35:38;26.65;61.46
63202;DHT22;49296;48.188;11.566;2023-08-21T00:38:06;26.62;61.38
63202;DHT22;49296;48.188;11.566;2023-08-21T00:40:33;26.57;61.59
63202;DHT22;49296;48.188;11.566;2023-08-21T00:42:59;26.48;61.76
63202;DHT22;49296;48.188;11.566;2023-08-21T00:45:26;26.47;61.78
63202;DHT22;49296;48.188;11.566;2023-08-21T00:47:54;26.51;61.77
63202;DHT22;49296;48.188;11.566;2023-08-21T00:50:20;26.47;61.84
63202;DHT22;49296;48.188;11.566;2023-08-21T00:52:47;26.44;61.95
63202;DHT22;49296;48.188;11.566;2023-08-21T00:55:17;26.44;62.02
63202;DHT22;49296;48.188;11.566;2023-08-21T00:57:44;26.34;61.95
63202;DHT22;49296;48.188;11.566;2023-08-21T01:00:12;26.37;61.92
63202;DHT22;49296;48.188;11.566;2023-08-21T01:02:39;26.37;61.76
63202;DHT22;49296;48.188;11.566;2023-08-21T01:05:07;26.30;61.72
63202;DHT22;49296;48.188;11.566;2023-08-21T01:07:40;26.24;61.90
63202;DHT22;49296;48.188;11.566;2023-08-21T01:10:14;26.30;61.85
63202;DHT22;49296;48.188;11.566;2023-08-21T01:12:48;26.30;62.05
63202;DHT22;49296;48.188;11.566;2023-08-21T01:15:17;26.26;61.94
63202;DHT22;49296;48.188;11.566;2023-08-21T01:17:46;26.19;62.18
63202;DHT22;49296;48.188;11.566;2023-08-21T01:20:14;26.20;62.14
63202;DHT22;49296;48.188;11.566;2023-08-21T01:22:42;26.17;62.15
63202;DHT22;49296;48.188;11.566;2023-08-21T01:25:13;26.12;62.14
63202;DHT22;49296;48.188;11.566;2023-08-21T01:27:42;26.08;62.36
63202;DHT22;49296;48.188;11.566;2023-08-21T01:30:10;26.00;62.43
63202;DHT22;49296;48.188;11.566;2023-08-21T01:32:45;26.05;62.26
63202;DHT22;49296;48.188;11.566;2023-08-21T01:35:14;26.03;61.99
63202;DHT22;49296;48.188;11.566;2023-08-21T01:37:42;26.02;62.29
63202;DHT22;49296;48.188;11.566;2023-08-21T01:40:10;25.96;61.66
63202;DHT22;49296;48.188;11.566;2023-08-21T01:42:38;25.95;62.08
63202;DHT22;49296;48.188;11.566;2023-08-21T01:45:05;25.92;62.05
63202;DHT22;49296;48.188;11.566;2023-08-21T01:47:32;25.95;61.85
63202;DHT22;49296;48.188;11.566;2023-08-21T01:49:59;25.91;62.02
63202;DHT22;49296;48.188;11.566;2023-08-21T01:52:25;25.82;61.94
63202;DHT22;49296;48.188;11.566;2023-08-21T01:54:52;25.72;61.85
63202;DHT22;49296;48.188;11.566;2023-08-21T01:57:19;25.82;61.71
63202;DHT22;49296;48.188;11.566;2023-08-21T01:59:47;25.71;62.24
63202;DHT22;49296;48.188;11.566;2023-08-21T02:02:14;25.77;62.38
63202;DHT22;49296;48.188;11.566;2023-08-21T02:04:40;25.78;62.48
63202;DHT22;49296;48.188;11.566;2023-08-21T02:07:07;25.70;62.34
63202;DHT22;49296;48.188;11.566;2023-08-21T02:09:34;25.50;62.39
63202;DHT22;49296;48.188;11.566;2023-08-21T02:12:00;25.27;62.72
63202;DHT22;49296;48.188;11.566;2023-08-21T02:14:27;25.24;62.87
63202;DHT22;49296;48.188;11.566;2023-08-21T02:16:55;25.27;62.91
63202;DHT22;49296;48.188;11.566;2023-08-21T02:19:22;25.26;63.19
63202;DHT22;49296;48.188;11.566;2023-08-21T02:21:49;25.23;63.26
63202;DHT22;49296;48.188;11.566;2023-08-21T02:24:15;24.98;63.68
63202;DHT22;49296;48.188;11.566;2023-08-21T02:26:42;24.86;64.06
63202;DHT22;49296;48.188;11.566;2023-08-21T02:29:11;24.96;63.70
63202;DHT22;49296;48.188;11.566;2023-08-21T02:31:37;24.98;63.29
63202;DHT22;49296;48.188;11.566;2023-08-21T02:34:05;24.84;63.26
63202;DHT22;49296;48.188;11.566;2023-08-21T02:36:32;24.82;63.53
63202;DHT22;49296;48.188;11.566;2023-08-21T02:38:58;24.84;63.57
63202;DHT22;49296;48.188;11.566;2023-08-21T02:41:25;24.82;63.70
63202;DHT22;49296;48.188;11.566;2023-08-21T02:43:52;24.91;63.53
63202;DHT22;49296;48.188;11.566;2023-08-21T02:46:19;24.74;63.85
63202;DHT22;49296;48.188;11.566;2023-08-21T02:48:45;24.82;63.69
63202;DHT22;49296;48.188;11.566;2023-08-21T02:51:13;24.78;63.83
63202;DHT22;49296;48.188;11.566;2023-08-21T02:53:40;24.53;64.36
63202;DHT22;49296;48.188;11.566;2023-08-21T02:56:06;24.58;64.30
63202;DHT22;49296;48.188;11.566;2023-08-21T02:58:33;24.20;65.11
63202;DHT22;49296;48.188;11.566;2023-08-21T03:01:00;24.20;65.15
63202;DHT22;49296;48.188;11.566;2023-08-21T03:03:26;23.47;66.97
63202;DHT22;49296;48.188;11.566;2023-08-21T03:05:53;23.72;66.52
63202;DHT22;49296;48.188;11.566;2023-08-21T03:08:21;23.84;66.28
63202;DHT22;49296;48.188;11.566;2023-08-21T03:10:47;24.02;65.85
63202;DHT22;49296;48.188;11.566;2023-08-21T03:13:14;23.95;66.05
63202;DHT22;49296;48.188;11.566;2023-08-21T03:15:41;23.96;65.96
63202;DHT22;49296;48.188;11.566;2023-08-21T03:18:08;24.08;65.85
63202;DHT22;49296;48.188;11.566;2023-08-21T03:20:35;24.09;65.72
63202;DHT22;49296;48.188;11.566;2023-08-21T03:23:01;24.08;65.76
63202;DHT22;49296;48.188;11.566;2023-08-21T03:25:29;23.92;66.00
63202;DHT22;49296;48.188;11.566;2023-08-21T03:27:56;24.15;65.66
63202;DHT22;49296;48.188;11.566;2023-08-21T03:30:23;24.17;65.45
63202;DHT22;49296;48.188;11.566;2023-08-21T03:32:49;24.26;65.30
63202;DHT22;49296;48.188;11.566;2023-08-21T03:35:16;24.15;65.46
63202;DHT22;49296;48.188;11.566;2023-08-21T03:37:43;24.05;65.74
63202;DHT22;49296;48.188;11.566;2023-08-21T03:40:10;23.96;65.85
63202;DHT22;49296;48.188;11.566;2023-08-21T03:42:38;23.65;66.73
63202;DHT22;49296;48.188;11.566;2023-08-21T03:45:06;23.19;68.31
63202;DHT22;49296;48.188;11.566;2023-08-21T03:47:33;23.22;68.41
63202;DHT22;49296;48.188;11.566;2023-08-21T03:49:59;23.10;68.76
63202;DHT22;49296;48.188;11.566;2023-08-21T03:52:26;23.15;68.93
63202;DHT22;49296;48.188;11.566;2023-08-21T03:54:52;23.23;68.92
63202;DHT22;49296;48.188;11.566;2023-08-21T03:57:19;23.08;69.35
63202;DHT22;49296;48.188;11.566;2023-08-21T03:59:47;23.01;69.76
63202;DHT22;49296;48.188;11.566;2023-08-21T04:02:13;22.91;70.03
63202;DHT22;49296;48.188;11.566;2023-08-21T04:04:40;23.02;69.85
63202;DHT22;49296;48.188;11.566;2023-08-21T04:07:07;23.18;69.65
63202;DHT22;49296;48.188;11.566;2023-08-21T04:09:33;23.37;69.23
63202;DHT22;49296;48.188;11.566;2023-08-21T04:12:00;23.47;68.98
63202;DHT22;49296;48.188;11.566;2023-08-21T04:14:26;23.60;68.71
63202;DHT22;49296;48.188;11.566;2023-08-21T04:16:54;23.71;68.27
63202;DHT22;49296;48.188;11.566;2023-08-21T04:19:21;23.82;68.05
63202;DHT22;49296;48.188;11.566;2023-08-21T04:21:48;23.92;67.79
63202;DHT22;49296;48.188;11.566;2023-08-21T04:24:14;23.99;67.53
63202;DHT22;49296;48.188;11.566;2023-08-21T04:26:41;23.96;67.59
63202;DHT22;49296;48.188;11.566;2023-08-21T04:29:07;24.02;67.54
63202;DHT22;49296;48.188;11.566;2023-08-21T04:31:35;24.04;67.50
63202;DHT22;49296;48.188;11.566;2023-08-21T04:34:03;23.96;67.52
63202;DHT22;49296;48.188;11.566;2023-08-21T04:36:29;24.05;67.62
63202;DHT22;49296;48.188;11.566;2023-08-21T04:38:56;24.08;67.29
63202;DHT22;49296;48.188;11.566;2023-08-21T04:41:23;23.90;67.50
63202;DHT22;49296;48.188;11.566;2023-08-21T04:43:49;23.68;67.78
63202;DHT22;49296;48.188;11.566;2023-08-21T04:46:16;23.61;67.94
63202;DHT22;49296;48.188;11.566;2023-08-21T04:48:43;23.51;68.15
63202;DHT22;49296;48.188;11.566;2023-08-21T04:51:11;23.54;68.17
63202;DHT22;49296;48.188;11.566;2023-08-21T04:53:37;23.58;68.04
63202;DHT22;49296;48.188;11.566;2023-08-21T04:56:04;23.42;68.30
63202;DHT22;49296;48.188;11.566;2023-08-21T04:58:30;23.43;68.41
63202;DHT22;49296;48.188;11.566;2023-08-21T05:00:57;23.43;68.40
63202;DHT22;49296;48.188;11.566;2023-08-21T05:03:24;23.57;68.19
63202;DHT22;49296;48.188;11.566;2023-08-21T05:05:54;23.60;68.04
63202;DHT22;49296;48.188;11.566;2023-08-21T05:08:23;23.46;68.36
63202;DHT22;49296;48.188;11.566;2023-08-21T05:10:54;23.54;68.19
63202;DHT22;49296;48.188;11.566;2023-08-21T05:13:21;23.37;68.53
63202;DHT22;49296;48.188;11.566;2023-08-21T05:15:51;23.29;68.66
63202;DHT22;49296;48.188;11.566;2023-08-21T05:18:17;23.03;69.19
63202;DHT22;49296;48.188;11.566;2023-08-21T05:20:44;23.10;69.13
63202;DHT22;49296;48.188;11.566;2023-08-21T05:23:10;23.03;69.21
63202;DHT22;49296;48.188;11.566;2023-08-21T05:25:39;23.05;69.23
63202;DHT22;49296;48.188;11.566;2023-08-21T05:28:06;23.06;69.22
63202;DHT22;49296;48.188;11.566;2023-08-21T05:30:35;23.03;69.18
63202;DHT22;49296;48.188;11.566;2023-08-21T05:33:02;23.02;69.31
63202;DHT22;49296;48.188;11.566;2023-08-21T05:35:28;23.05;69.06
63202;DHT22;49296;48.188;11.566;2023-08-21T05:37:55;23.01;68.99
63202;DHT22;49296;48.188;11.566;2023-08-21T05:40:22;23.13;68.86
63202;DHT22;49296;48.188;11.566;2023-08-21T05:42:50;23.02;69.17
63202;DHT22;49296;48.188;11.566;2023-08-21T05:45:16;23.09;69.17
63202;DHT22;49296;48.188;11.566;2023-08-21T05:47:43;23.10;69.27
63202;DHT22;49296;48.188;11.566;2023-08-21T05:50:09;23.39;68.83
63202;DHT22;49296;48.188;11.566;2023-08-21T05:52:36;23.49;68.43
63202;DHT22;49296;48.188;11.566;2023-08-21T05:55:03;23.42;68.46
63202;DHT22;49296;48.188;11.566;2023-08-21T05:57:30;23.37;68.50
63202;DHT22;49296;48.188;11.566;2023-08-21T05:59:58;23.50;68.39
63202;DHT22;49296;48.188;11.566;2023-08-21T06:02:25;23.58;68.10
63202;DHT22;49296;48.188;11.566;2023-08-21T06:04:51;23.43;68.48
63202;DHT22;49296;48.188;11.566;2023-08-21T06:07:18;23.50;68.39
63202;DHT22;49296;48.188;11.566;2023-08-21T06:09:45;23.58;68.15
63202;DHT22;49296;48.188;11.566;2023-08-21T06:12:12;23.64;68.05
63202;DHT22;49296;48.188;11.566;2023-08-21T06:14:38;23.68;68.07
63202;DHT22;49296;48.188;11.566;2023-08-21T06:17:06;23.84;67.76
63202;DHT22;49296;48.188;11.566;2023-08-21T06:19:33;23.74;68.02
63202;DHT22;49296;48.188;11.566;2023-08-21T06:21:59;23.85;67.87
63202;DHT22;49296;48.188;11.566;2023-08-21T06:24:26;23.98;67.63
63202;DHT22;49296;48.188;11.566;2023-08-21T06:26:53;23.75;67.75
63202;DHT22;49296;48.188;11.566;2023-08-21T06:29:19;23.74;67.91
63202;DHT22;49296;48.188;11.566;2023-08-21T06:31:46;23.78;68.04
63202;DHT22;49296;48.188;11.566;2023-08-21T06:34:15;24.02;67.43
63202;DHT22;49296;48.188;11.566;2023-08-21T06:36:41;24.06;67.50
63202;DHT22;49296;48.188;11.566;2023-08-21T06:39:08;24.13;67.28
63202;DHT22;49296;48.188;11.566;2023-08-21T06:41:35;24.10;67.33
63202;DHT22;49296;48.188;11.566;2023-08-21T06:44:02;24.30;66.86
63202;DHT22;49296;48.188;11.566;2023-08-21T06:46:28;24.09;67.38
63202;DHT22;49296;48.188;11.566;2023-08-21T06:48:55;24.06;67.33
63202;DHT22;49296;48.188;11.566;2023-08-21T06:51:23;24.19;67.21
63202;DHT22;49296;48.188;11.566;2023-08-21T06:53:49;24.27;66.75
63202;DHT22;49296;48.188;11.566;2023-08-21T06:56:16;24.40;66.64
63202;DHT22;49296;48.188;11.566;2023-08-21T06:58:43;24.33;66.87
63202;DHT22;49296;48.188;11.566;2023-08-21T07:01:09;24.17;66.94
63202;DHT22;49296;48.188;11.566;2023-08-21T07:03:36;24.36;66.71
63202;DHT22;49296;48.188;11.566;2023-08-21T07:06:02;24.58;65.98
63202;DHT22;49296;48.188;11.566;2023-08-21T07:08:30;24.71;65.99
63202;DHT22;49296;48.188;11.566;2023-08-21T07:10:57;24.84;65.65
63202;DHT22;49296;48.188;11.566;2023-08-21T07:13:24;24.91;65.32
63202;DHT22;49296;48.188;11.566;2023-08-21T07:15:53;24.93;65.31
63202;DHT22;49296;48.188;11.566;2023-08-21T07:18:20;25.06;65.06
63202;DHT22;49296;48.188;11.566;2023-08-21T07:20:46;25.15;64.61
63202;DHT22;49296;48.188;11.566;2023-08-21T07:23:13;25.27;64.35
63202;DHT22;49296;48.188;11.566;2023-08-21T07:25:41;25.31;64.17
63202;DHT22;49296;48.188;11.566;2023-08-21T07:28:07;25.46;64.06
63202;DHT22;49296;48.188;11.566;2023-08-21T07:30:36;25.55;63.73
63202;DHT22;49296;48.188;11.566;2023-08-21T07:33:03;25.50;63.68
63202;DHT22;49296;48.188;11.566;2023-08-21T07:35:30;25.48;64.00
63202;DHT22;49296;48.188;11.566;2023-08-21T07:37:57;25.55;63.55
63202;DHT22;49296;48.188;11.566;2023-08-21T07:40:24;25.55;63.48
63202;DHT22;49296;48.188;11.566;2023-08-21T07:42:52;25.63;63.64
63202;DHT22;49296;48.188;11.566;2023-08-21T07:45:18;25.75;63.42
63202;DHT22;49296;48.188;11.566;2023-08-21T07:47:45;25.88;62.91
63202;DHT22;49296;48.188;11.566;2023-08-21T07:50:11;25.93;62.55
63202;DHT22;49296;48.188;11.566;2023-08-21T07:52:39;26.03;62.25
63202;DHT22;49296;48.188;11.566;2023-08-21T07:55:07;26.09;62.19
63202;DHT22;49296;48.188;11.566;2023-08-21T07:57:33;26.08;62.13
63202;DHT22;49296;48.188;11.566;2023-08-21T08:00:02;26.17;62.00
63202;DHT22;49296;48.188;11.566;2023-08-21T08:02:29;26.16;61.97
63202;DHT22;49296;48.188;11.566;2023-08-21T08:04:56;26.20;61.68
63202;DHT22;49296;48.188;11.566;2023-08-21T08:07:23;26.32;61.86
63202;DHT22;49296;48.188;11.566;2023-08-21T08:09:49;26.39;61.62
63202;DHT22;49296;48.188;11.566;2023-08-21T08:12:16;26.51;61.24
63202;DHT22;49296;48.188;11.566;2023-08-21T08:14:43;26.60;61.12
63202;DHT22;49296;48.188;11.566;2023-08-21T08:17:11;26.60;61.08
63202;DHT22;49296;48.188;11.566;2023-08-21T08:19:37;26.64;60.84
63202;DHT22;49296;48.188;11.566;2023-08-21T08:22:04;26.69;60.47
63202;DHT22;49296;48.188;11.566;2023-08-21T08:24:30;26.65;60.26
63202;DHT22;49296;48.188;11.566;2023-08-21T08:26:57;26.65;60.25
63202;DHT22;49296;48.188;11.566;2023-08-21T08:29:24;26.82;60.36
63202;DHT22;49296;48.188;11.566;2023-08-21T08:31:50;26.95;60.14
63202;DHT22;49296;48.188;11.566;2023-08-21T08:34:18;27.00;59.34
63202;DHT22;49296;48.188;11.566;2023-08-21T08:36:46;27.03;58.93
63202;DHT22;49296;48.188;11.566;2023-08-21T08:39:12;27.19;58.27
63202;DHT22;49296;48.188;11.566;2023-08-21T08:41:49;27.24;58.20
63202;DHT22;49296;48.188;11.566;2023-08-21T08:44:18;27.36;57.61
63202;DHT22;49296;48.188;11.566;2023-08-21T08:46:44;27.40;56.86
63202;DHT22;49296;48.188;11.566;2023-08-21T08:49:12;27.44;57.29
63202;DHT22;49296;48.188;11.566;2023-08-21T08:51:41;27.48;57.00
63202;DHT22;49296;48.188;11.566;2023-08-21T08:54:09;27.59;56.80
63202;DHT22;49296;48.188;11.566;2023-08-21T08:56:37;27.69;56.61
63202;DHT22;49296;48.188;11.566;2023-08-21T08:59:05;27.72;56.13
63202;DHT22;49296;48.188;11.566;2023-08-21T09:01:32;27.69;55.55
63202;DHT22;49296;48.188;11.566;2023-08-21T09:03:59;27.80;55.20
63202;DHT22;49296;48.188;11.566;2023-08-21T09:06:25;27.88;51.72
63202;DHT22;49296;48.188;11.566;2023-08-21T09:08:55;27.95;52.50
63202;DHT22;49296;48.188;11.566;2023-08-21T09:11:22;28.08;53.07
63202;DHT22;49296;48.188;11.566;2023-08-21T09:13:49;28.08;53.91
63202;DHT22;49296;48.188;11.566;2023-08-21T09:16:17;28.13;52.99
63202;DHT22;49296;48.188;11.566;2023-08-21T09:18:46;28.32;52.50
63202;DHT22;49296;48.188;11.566;2023-08-21T09:21:15;28.37;52.20
63202;DHT22;49296;48.188;11.566;2023-08-21T09:23:41;28.39;52.49
63202;DHT22;49296;48.188;11.566;2023-08-21T09:26:09;28.41;51.57
63202;DHT22;49296;48.188;11.566;2023-08-21T09:28:37;28.44;51.06
63202;DHT22;49296;48.188;11.566;2023-08-21T09:31:04;28.43;51.35
63202;DHT22;49296;48.188;11.566;2023-08-21T09:33:30;28.41;52.11
63202;DHT22;49296;48.188;11.566;2023-08-21T09:35:57;28.51;52.15
63202;DHT22;49296;48.188;11.566;2023-08-21T09:38:25;28.67;52.78
63202;DHT22;49296;48.188;11.566;2023-08-21T09:40:54;28.72;52.82
63202;DHT22;49296;48.188;11.566;2023-08-21T09:43:22;28.71;51.97
63202;DHT22;49296;48.188;11.566;2023-08-21T09:45:55;28.74;51.57
63202;DHT22;49296;48.188;11.566;2023-08-21T09:48:22;28.76;51.34
63202;DHT22;49296;48.188;11.566;2023-08-21T09:50:50;28.81;51.41
63202;DHT22;49296;48.188;11.566;2023-08-21T09:53:17;28.86;50.93
63202;DHT22;49296;48.188;11.566;2023-08-21T09:55:44;28.85;51.80
63202;DHT22;49296;48.188;11.566;2023-08-21T09:58:11;28.79;52.81
63202;DHT22;49296;48.188;11.566;2023-08-21T10:00:41;28.71;53.14
63202;DHT22;49296;48.188;11.566;2023-08-21T10:03:08;28.79;53.11
63202;DHT22;49296;48.188;11.566;2023-08-21T10:05:38;28.98;50.98
63202;DHT22;49296;48.188;11.566;2023-08-21T10:08:05;29.09;50.09
63202;DHT22;49296;48.188;11.566;2023-08-21T10:10:33;29.14;50.11
63202;DHT22;49296;48.188;11.566;2023-08-21T10:13:01;29.14;50.93
63202;DHT22;49296;48.188;11.566;2023-08-21T10:15:29;29.07;46.70
63202;DHT22;49296;48.188;11.566;2023-08-21T10:17:58;29.06;47.60
63202;DHT22;49296;48.188;11.566;2023-08-21T10:20:25;29.09;47.75
63202;DHT22;49296;48.188;11.566;2023-08-21T10:22:54;29.13;48.48
63202;DHT22;49296;48.188;11.566;2023-08-21T10:25:21;29.23;47.12
63202;DHT22;49296;48.188;11.566;2023-08-21T10:27:53;29.29;47.60
63202;DHT22;49296;48.188;11.566;2023-08-21T10:30:21;29.29;49.73
63202;DHT22;49296;48.188;11.566;2023-08-21T10:32:49;29.31;49.20
63202;DHT22;49296;48.188;11.566;2023-08-21T10:35:18;29.27;49.91
63202;DHT22;49296;48.188;11.566;2023-08-21T10:38:07;29.26;49.40
63202;DHT22;49296;48.188;11.566;2023-08-21T10:40:34;29.37;49.35
63202;DHT22;49296;48.188;11.566;2023-08-21T10:43:01;29.43;47.72
63202;DHT22;49296;48.188;11.566;2023-08-21T10:45:28;29.55;47.34
63202;DHT22;49296;48.188;11.566;2023-08-21T10:47:57;29.72;46.50
63202;DHT22;49296;48.188;11.566;2023-08-21T10:50:25;29.65;48.04
63202;DHT22;49296;48.188;11.566;2023-08-21T10:52:53;29.72;49.04
63202;DHT22;49296;48.188;11.566;2023-08-21T10:55:20;29.64;49.18
63202;DHT22;49296;48.188;11.566;2023-08-21T10:57:48;29.61;47.63
63202;DHT22;49296;48.188;11.566;2023-08-21T11:00:16;29.61;48.38
63202;DHT22;49296;48.188;11.566;2023-08-21T11:02:44;29.65;47.51
63202;DHT22;49296;48.188;11.566;2023-08-21T11:05:11;29.82;48.01
63202;DHT22;49296;48.188;11.566;2023-08-21T11:07:41;30.02;48.73
63202;DHT22;49296;48.188;11.566;2023-08-21T11:10:11;30.13;48.91
63202;DHT22;49296;48.188;11.566;2023-08-21T11:12:47;30.14;48.39
63202;DHT22;49296;48.188;11.566;2023-08-21T11:15:15;30.14;46.97
63202;DHT22;49296;48.188;11.566;2023-08-21T11:17:42;30.27;47.26
63202;DHT22;49296;48.188;11.566;2023-08-21T11:20:09;30.34;46.72
63202;DHT22;49296;48.188;11.566;2023-08-21T11:22:37;30.37;47.09
63202;DHT22;49296;48.188;11.566;2023-08-21T11:25:06;30.40;46.93
63202;DHT22;49296;48.188;11.566;2023-08-21T11:27:33;30.49;47.86
63202;DHT22;49296;48.188;11.566;2023-08-21T11:30:00;30.54;48.79
63202;DHT22;49296;48.188;11.566;2023-08-21T11:32:27;30.54;48.30
63202;DHT22;49296;48.188;11.566;2023-08-21T11:34:55;30.65;48.64
63202;DHT22;49296;48.188;11.566;2023-08-21T11:37:24;30.72;48.49
63202;DHT22;49296;48.188;11.566;2023-08-21T11:39:52;30.74;48.55
63202;DHT22;49296;48.188;11.566;2023-08-21T11:42:22;30.90;47.81
63202;DHT22;49296;48.188;11.566;2023-08-21T11:44:51;30.96;47.20
63202;DHT22;49296;48.188;11.566;2023-08-21T11:47:20;31.09;45.76
63202;DHT22;49296;48.188;11.566;2023-08-21T11:49:47;31.19;45.45
63202;DHT22;49296;48.188;11.566;2023-08-21T11:52:18;31.35;45.31
63202;DHT22;49296;48.188;11.566;2023-08-21T11:54:47;31.38;44.45
63202;DHT22;49296;48.188;11.566;2023-08-21T11:57:14;31.47;44.45
63202;DHT22;49296;48.188;11.566;2023-08-21T11:59:43;31.52;44.41
63202;DHT22;49296;48.188;11.566;2023-08-21T12:02:12;31.55;44.34
63202;DHT22;49296;48.188;11.566;2023-08-21T12:04:39;31.61;44.08
63202;DHT22;49296;48.188;11.566;2023-08-21T12:07:05;31.55;45.29
63202;DHT22;49296;48.188;11.566;2023-08-21T12:09:32;31.71;45.27
63202;DHT22;49296;48.188;11.566;2023-08-21T12:11:59;31.75;45.32
63202;DHT22;49296;48.188;11.566;2023-08-21T12:14:27;31.88;45.31
63202;DHT22;49296;48.188;11.566;2023-08-21T12:16:55;31.75;45.66
63202;DHT22;49296;48.188;11.566;2023-08-21T12:19:22;31.84;44.59
63202;DHT22;49296;48.188;11.566;2023-08-21T12:21:50;31.93;44.52
63202;DHT22;49296;48.188;11.566;2023-08-21T12:24:16;32.10;44.29
63202;DHT22;49296;48.188;11.566;2023-08-21T12:26:43;32.27;43.72
63202;DHT22;49296;48.188;11.566;2023-08-21T12:29:10;32.27;45.17
63202;DHT22;49296;48.188;11.566;2023-08-21T12:31:36;32.36;45.58
63202;DHT22;49296;48.188;11.566;2023-08-21T12:34:04;32.33;45.12
63202;DHT22;49296;48.188;11.566;2023-08-21T12:36:34;32.26;45.63
63202;DHT22;49296;48.188;11.566;2023-08-21T12:39:00;32.43;45.01
63202;DHT22;49296;48.188;11.566;2023-08-21T12:41:27;32.58;45.89
63202;DHT22;49296;48.188;11.566;2023-08-21T12:43:54;32.78;45.21
63202;DHT22;49296;48.188;11.566;2023-08-21T12:46:21;32.98;44.73
63202;DHT22;49296;48.188;11.566;2023-08-21T12:48:48;33.02;43.07
63202;DHT22;49296;48.188;11.566;2023-08-21T12:51:16;33.10;42.60
63202;DHT22;49296;48.188;11.566;2023-08-21T12:53:43;33.22;43.60
63202;DHT22;49296;48.188;11.566;2023-08-21T12:56:09;33.33;44.05
63202;DHT22;49296;48.188;11.566;2023-08-21T12:58:36;33.57;43.12
63202;DHT22;49296;48.188;11.566;2023-08-21T13:01:03;33.57;41.96
63202;DHT22;49296;48.188;11.566;2023-08-21T13:03:30;33.82;42.54
63202;DHT22;49296;48.188;11.566;2023-08-21T13:05:57;34.05;41.70
63202;DHT22;49296;48.188;11.566;2023-08-21T13:08:25;33.94;40.06
63202;DHT22;49296;48.188;11.566;2023-08-21T13:10:52;33.98;39.92
63202;DHT22;49296;48.188;11.566;2023-08-21T13:13:18;34.27;40.23
63202;DHT22;49296;48.188;11.566;2023-08-21T13:15:46;34.41;39.01
63202;DHT22;49296;48.188;11.566;2023-08-21T13:18:12;34.77;38.63
63202;DHT22;49296;48.188;11.566;2023-08-21T13:20:40;34.88;36.83
63202;DHT22;49296;48.188;11.566;2023-08-21T13:23:06;35.09;37.39
63202;DHT22;49296;48.188;11.566;2023-08-21T13:25:35;35.13;36.97
63202;DHT22;49296;48.188;11.566;2023-08-21T13:28:02;35.33;38.91
63202;DHT22;49296;48.188;11.566;2023-08-21T13:30:29;35.34;39.38
63202;DHT22;49296;48.188;11.566;2023-08-21T13:32:56;35.46;39.00
63202;DHT22;49296;48.188;11.566;2023-08-21T13:35:23;35.65;39.31
63202;DHT22;49296;48.188;11.566;2023-08-21T13:37:50;35.84;38.90
63202;DHT22;49296;48.188;11.566;2023-08-21T13:40:17;35.67;38.56
63202;DHT22;49296;48.188;11.566;2023-08-21T13:42:46;35.54;38.96
63202;DHT22;49296;48.188;11.566;2023-08-21T13:45:15;35.88;39.05
63202;DHT22;49296;48.188;11.566;2023-08-21T13:47:44;35.94;39.21
63202;DHT22;49296;48.188;11.566;2023-08-21T13:50:11;36.08;38.79
63202;DHT22;49296;48.188;11.566;2023-08-21T13:52:38;36.15;37.62
63202;DHT22;49296;48.188;11.566;2023-08-21T13:55:06;36.16;37.32
63202;DHT22;49296;48.188;11.566;2023-08-21T13:57:33;36.54;36.59
63202;DHT22;49296;48.188;11.566;2023-08-21T14:00:03;36.85;36.08
63202;DHT22;49296;48.188;11.566;2023-08-21T14:02:32;37.12;35.29
63202;DHT22;49296;48.188;11.566;2023-08-21T14:04:59;37.11;35.66
63202;DHT22;49296;48.188;11.566;2023-08-21T14:07:26;37.29;36.42
63202;DHT22;49296;48.188;11.566;2023-08-21T14:09:52;37.21;36.07
63202;DHT22;49296;48.188;11.566;2023-08-21T14:12:19;37.46;35.59
63202;DHT22;49296;48.188;11.566;2023-08-21T14:14:46;37.68;35.83
63202;DHT22;49296;48.188;11.566;2023-08-21T14:17:14;37.44;35.05
63202;DHT22;49296;48.188;11.566;2023-08-21T14:19:41;37.08;35.73
63202;DHT22;49296;48.188;11.566;2023-08-21T14:22:07;37.36;35.54
63202;DHT22;49296;48.188;11.566;2023-08-21T14:24:34;37.47;35.68
63202;DHT22;49296;48.188;11.566;2023-08-21T14:27:00;37.36;34.52
63202;DHT22;49296;48.188;11.566;2023-08-21T14:29:27;37.34;35.07
63202;DHT22;49296;48.188;11.566;2023-08-21T14:31:54;37.64;35.17
63202;DHT22;49296;48.188;11.566;2023-08-21T14:34:23;37.85;35.15
63202;DHT22;49296;48.188;11.566;2023-08-21T14:36:50;37.89;34.73
63202;DHT22;49296;48.188;11.566;2023-08-21T14:39:17;37.71;34.99
63202;DHT22;49296;48.188;11.566;2023-08-21T14:41:45;37.12;35.45
63202;DHT22;49296;48.188;11.566;2023-08-21T14:44:11;37.25;35.14
63202;DHT22;49296;48.188;11.566;2023-08-21T14:46:40;36.94;35.55
63202;DHT22;49296;48.188;11.566;2023-08-21T14:49:06;36.82;35.83
63202;DHT22;49296;48.188;11.566;2023-08-21T14:51:34;36.77;36.31
63202;DHT22;49296;48.188;11.566;2023-08-21T14:54:02;36.88;35.98
63202;DHT22;49296;48.188;11.566;2023-08-21T14:56:29;36.81;35.45
63202;DHT22;49296;48.188;11.566;2023-08-21T14:58:55;37.18;35.34
63202;DHT22;49296;48.188;11.566;2023-08-21T15:01:22;37.63;34.85
63202;DHT22;49296;48.188;11.566;2023-08-21T15:03:49;37.92;34.73
63202;DHT22;49296;48.188;11.566;2023-08-21T15:06:15;38.12;34.37
63202;DHT22;49296;48.188;11.566;2023-08-21T15:08:43;37.42;34.64
63202;DHT22;49296;48.188;11.566;2023-08-21T15:11:10;37.18;35.19
63202;DHT22;49296;48.188;11.566;2023-08-21T15:13:37;37.84;34.47
63202;DHT22;49296;48.188;11.566;2023-08-21T15:16:03;38.32;34.49